ASA67 PAJN-PANC
Flight info
| Callsign | ASA67 |
|---|---|
| Flight time | 1h 20m |
| Altitude | 36000 |
| Route | CHLKT2 ALATY JOH WITTI5 |
| Aircraft | B738/M-SDE2E3FGHIRWXY/LB1 |
Departure
| Time | 2026-04-26 13:11 |
|---|---|
| Airport | Juneau International Airport (PAJN) |
Arrival
| Time | 2026-04-26 14:31 |
|---|---|
| Airport | Ted Stevens Anchorage International Airport (PANC) |
| Time | Latitude | Longitude | Altitude | Speed | Heading |
|---|---|---|---|---|---|
| 2026-04-26 12:53 | 58.35832 | -134.58370 | 33 ft | 0 kts | 22° |
| 2026-04-26 13:02 | 58.35819 | -134.58381 | 32 ft | 4 kts | 28° |
| 2026-04-26 13:03 | 58.35797 | -134.58408 | 33 ft | 4 kts | 42° |
| 2026-04-26 13:03 | 58.35779 | -134.58445 | 32 ft | 3 kts | 55° |
| 2026-04-26 13:03 | 58.35775 | -134.58457 | 32 ft | 0 kts | 55° |
| 2026-04-26 13:05 | 58.35775 | -134.58456 | 32 ft | 1 kts | 56° |
| 2026-04-26 13:05 | 58.35777 | -134.58364 | 32 ft | 10 kts | 107° |
| 2026-04-26 13:05 | 58.35728 | -134.58297 | 32 ft | 12 kts | 161° |
| 2026-04-26 13:06 | 58.35678 | -134.58134 | 31 ft | 18 kts | 104° |
| 2026-04-26 13:06 | 58.35650 | -134.57935 | 33 ft | 15 kts | 104° |
| 2026-04-26 13:06 | 58.35623 | -134.57744 | 33 ft | 15 kts | 105° |
| 2026-04-26 13:06 | 58.35596 | -134.57562 | 33 ft | 14 kts | 107° |
| 2026-04-26 13:07 | 58.35567 | -134.57389 | 33 ft | 13 kts | 108° |
| 2026-04-26 13:07 | 58.35552 | -134.57223 | 31 ft | 13 kts | 70° |
| 2026-04-26 13:07 | 58.35546 | -134.57137 | 32 ft | 14 kts | 130° |
| 2026-04-26 13:07 | 58.35512 | -134.56940 | 33 ft | 16 kts | 105° |
| 2026-04-26 13:08 | 58.35483 | -134.56742 | 32 ft | 16 kts | 105° |
| 2026-04-26 13:08 | 58.35452 | -134.56511 | 32 ft | 22 kts | 104° |
| 2026-04-26 13:08 | 58.35412 | -134.56227 | 32 ft | 22 kts | 104° |
| 2026-04-26 13:08 | 58.35374 | -134.55951 | 33 ft | 21 kts | 105° |
| 2026-04-26 13:09 | 58.35338 | -134.55687 | 32 ft | 20 kts | 105° |
| 2026-04-26 13:09 | 58.35302 | -134.55437 | 33 ft | 19 kts | 104° |
| 2026-04-26 13:09 | 58.35248 | -134.55300 | 33 ft | 13 kts | 173° |
| 2026-04-26 13:09 | 58.35178 | -134.55381 | 32 ft | 13 kts | 264° |
| 2026-04-26 13:10 | 58.35207 | -134.55573 | 31 ft | 29 kts | 285° |
| 2026-04-26 13:10 | 58.35323 | -134.56410 | 35 ft | 98 kts | 285° |
| 2026-04-26 13:10 | 58.35544 | -134.58004 | 53 ft | 149 kts | 284° |
| 2026-04-26 13:10 | 58.35814 | -134.60045 | 505 ft | 166 kts | 283° |
| 2026-04-26 13:11 | 58.35925 | -134.62293 | 1087 ft | 176 kts | 268° |
| 2026-04-26 13:11 | 58.35894 | -134.64646 | 1758 ft | 183 kts | 269° |
| 2026-04-26 13:11 | 58.35890 | -134.67205 | 2157 ft | 204 kts | 270° |
| 2026-04-26 13:11 | 58.35910 | -134.70015 | 2437 ft | 220 kts | 275° |
| 2026-04-26 13:12 | 58.36329 | -134.72951 | 2578 ft | 245 kts | 292° |
| 2026-04-26 13:12 | 58.36994 | -134.76048 | 3038 ft | 258 kts | 290° |
| 2026-04-26 13:12 | 58.37621 | -134.79248 | 3922 ft | 256 kts | 289° |
| 2026-04-26 13:12 | 58.38220 | -134.82472 | 4762 ft | 259 kts | 289° |
| 2026-04-26 13:13 | 58.38810 | -134.85749 | 5530 ft | 263 kts | 289° |
| 2026-04-26 13:13 | 58.39402 | -134.89068 | 6418 ft | 258 kts | 289° |
| 2026-04-26 13:13 | 58.39984 | -134.92318 | 7207 ft | 263 kts | 289° |
| 2026-04-26 13:13 | 58.40597 | -134.95663 | 7801 ft | 270 kts | 289° |
| 2026-04-26 13:14 | 58.41220 | -134.99074 | 8534 ft | 273 kts | 288° |
| 2026-04-26 13:14 | 58.41843 | -135.02514 | 9293 ft | 276 kts | 288° |
| 2026-04-26 13:14 | 58.42469 | -135.05993 | 10017 ft | 279 kts | 288° |
| 2026-04-26 13:14 | 58.43111 | -135.09562 | 10422 ft | 294 kts | 289° |
| 2026-04-26 13:15 | 58.44024 | -135.13229 | 10584 ft | 317 kts | 299° |
| 2026-04-26 13:15 | 58.45214 | -135.16859 | 10759 ft | 337 kts | 302° |
| 2026-04-26 13:15 | 58.46548 | -135.20695 | 10913 ft | 356 kts | 303° |
| 2026-04-26 13:15 | 58.47952 | -135.24707 | 11229 ft | 368 kts | 303° |
| 2026-04-26 13:16 | 58.49373 | -135.28811 | 11769 ft | 372 kts | 302° |
| 2026-04-26 13:16 | 58.50793 | -135.32971 | 12411 ft | 374 kts | 302° |
| 2026-04-26 13:16 | 58.52208 | -135.37161 | 13053 ft | 377 kts | 302° |
| 2026-04-26 13:16 | 58.53631 | -135.41408 | 13712 ft | 381 kts | 301° |
| 2026-04-26 13:17 | 58.56501 | -135.50047 | 14848 ft | 388 kts | 301° |
| 2026-04-26 13:17 | 58.57957 | -135.54447 | 15435 ft | 393 kts | 301° |
| 2026-04-26 13:18 | 58.60902 | -135.63381 | 16587 ft | 400 kts | 300° |
| 2026-04-26 13:18 | 58.62392 | -135.67914 | 17234 ft | 403 kts | 301° |
| 2026-04-26 13:18 | 58.65401 | -135.77096 | 18365 ft | 410 kts | 300° |
| 2026-04-26 13:19 | 58.66929 | -135.81767 | 18841 ft | 414 kts | 300° |
| 2026-04-26 13:19 | 58.68468 | -135.86480 | 19334 ft | 417 kts | 300° |
| 2026-04-26 13:19 | 58.70014 | -135.91227 | 19832 ft | 420 kts | 300° |
| 2026-04-26 13:19 | 58.71563 | -135.96000 | 20321 ft | 422 kts | 300° |
| 2026-04-26 13:20 | 58.73129 | -136.00830 | 20796 ft | 425 kts | 300° |
| 2026-04-26 13:20 | 58.74699 | -136.05682 | 21246 ft | 428 kts | 299° |
| 2026-04-26 13:20 | 58.76278 | -136.10571 | 21698 ft | 431 kts | 299° |
| 2026-04-26 13:20 | 58.77866 | -136.15497 | 22155 ft | 434 kts | 299° |
| 2026-04-26 13:21 | 58.79460 | -136.20452 | 22591 ft | 437 kts | 299° |
| 2026-04-26 13:21 | 58.80521 | -136.23760 | 22879 ft | 439 kts | 299° |
| 2026-04-26 13:21 | 58.82673 | -136.30480 | 23433 ft | 442 kts | 298° |
| 2026-04-26 13:21 | 58.84296 | -136.35560 | 23817 ft | 445 kts | 298° |
| 2026-04-26 13:22 | 58.85923 | -136.40665 | 24149 ft | 448 kts | 298° |
| 2026-04-26 13:22 | 58.87557 | -136.45805 | 24466 ft | 450 kts | 298° |
| 2026-04-26 13:22 | 58.89202 | -136.50984 | 24804 ft | 453 kts | 298° |
| 2026-04-26 13:22 | 58.90852 | -136.56194 | 25121 ft | 455 kts | 298° |
| 2026-04-26 13:23 | 58.92485 | -136.61362 | 25418 ft | 457 kts | 298° |
| 2026-04-26 13:23 | 58.94146 | -136.66628 | 25738 ft | 460 kts | 298° |
| 2026-04-26 13:23 | 58.95811 | -136.71921 | 26063 ft | 461 kts | 298° |
| 2026-04-26 13:23 | 58.97483 | -136.77249 | 26362 ft | 463 kts | 298° |
| 2026-04-26 13:24 | 58.99161 | -136.82606 | 26648 ft | 466 kts | 298° |
| 2026-04-26 13:24 | 59.00841 | -136.87986 | 26900 ft | 468 kts | 297° |
| 2026-04-26 13:24 | 59.02529 | -136.93401 | 27181 ft | 470 kts | 297° |
| 2026-04-26 13:24 | 59.04220 | -136.98835 | 27535 ft | 470 kts | 297° |
| 2026-04-26 13:25 | 59.05908 | -137.04273 | 27967 ft | 469 kts | 297° |
| 2026-04-26 13:25 | 59.07584 | -137.09683 | 28431 ft | 466 kts | 297° |
| 2026-04-26 13:25 | 59.09253 | -137.15086 | 28844 ft | 465 kts | 297° |
| 2026-04-26 13:25 | 59.10918 | -137.20492 | 29175 ft | 466 kts | 297° |
| 2026-04-26 13:26 | 59.12581 | -137.25904 | 29499 ft | 466 kts | 297° |
| 2026-04-26 13:26 | 59.14242 | -137.31319 | 29936 ft | 465 kts | 296° |
| 2026-04-26 13:26 | 59.15877 | -137.36659 | 30334 ft | 463 kts | 296° |
| 2026-04-26 13:26 | 59.17523 | -137.42051 | 30664 ft | 463 kts | 297° |
| 2026-04-26 13:27 | 59.19167 | -137.47448 | 31005 ft | 462 kts | 297° |
| 2026-04-26 13:27 | 59.20803 | -137.52832 | 31356 ft | 461 kts | 297° |
| 2026-04-26 13:27 | 59.22430 | -137.58199 | 31733 ft | 459 kts | 297° |
| 2026-04-26 13:27 | 59.24055 | -137.63571 | 32105 ft | 458 kts | 297° |
| 2026-04-26 13:28 | 59.25670 | -137.68923 | 32441 ft | 457 kts | 297° |
| 2026-04-26 13:28 | 59.27280 | -137.74275 | 32795 ft | 456 kts | 297° |
| 2026-04-26 13:28 | 59.28881 | -137.79605 | 33174 ft | 453 kts | 298° |
| 2026-04-26 13:28 | 59.30462 | -137.84879 | 33790 ft | 445 kts | 298° |
| 2026-04-26 13:29 | 59.32023 | -137.90099 | 34216 ft | 442 kts | 298° |
| 2026-04-26 13:29 | 59.33051 | -137.93545 | 34353 ft | 443 kts | 298° |
| 2026-04-26 13:29 | 59.35135 | -138.00549 | 34532 ft | 447 kts | 298° |
| 2026-04-26 13:29 | 59.36700 | -138.05821 | 34720 ft | 447 kts | 298° |
| 2026-04-26 13:30 | 59.38263 | -138.11095 | 34982 ft | 446 kts | 298° |
| 2026-04-26 13:30 | 59.39816 | -138.16342 | 35247 ft | 445 kts | 298° |
| 2026-04-26 13:30 | 59.41368 | -138.21602 | 35457 ft | 446 kts | 298° |
| 2026-04-26 13:30 | 59.42754 | -138.27034 | 35646 ft | 445 kts | 289° |
| 2026-04-26 13:31 | 59.43761 | -138.32770 | 35945 ft | 442 kts | 286° |
| 2026-04-26 13:31 | 59.44660 | -138.38526 | 36162 ft | 442 kts | 285° |
| 2026-04-26 13:31 | 59.45537 | -138.44347 | 36132 ft | 445 kts | 285° |
| 2026-04-26 13:32 | 59.47305 | -138.55980 | 36135 ft | 442 kts | 285° |
| 2026-04-26 13:32 | 59.49109 | -138.67512 | 36151 ft | 440 kts | 286° |
| 2026-04-26 13:33 | 59.50886 | -138.78744 | 36143 ft | 438 kts | 286° |
| 2026-04-26 13:33 | 59.52694 | -138.90185 | 36135 ft | 437 kts | 286° |
| 2026-04-26 13:34 | 59.54478 | -139.01548 | 36145 ft | 437 kts | 286° |
| 2026-04-26 13:34 | 59.56262 | -139.12993 | 36134 ft | 437 kts | 286° |
| 2026-04-26 13:35 | 59.58037 | -139.24465 | 36138 ft | 438 kts | 286° |
| 2026-04-26 13:35 | 59.59808 | -139.35981 | 36132 ft | 439 kts | 285° |
| 2026-04-26 13:36 | 59.61570 | -139.47523 | 36136 ft | 439 kts | 285° |
| 2026-04-26 13:36 | 59.63329 | -139.59120 | 36138 ft | 440 kts | 285° |
| 2026-04-26 13:37 | 59.65077 | -139.70731 | 36142 ft | 441 kts | 285° |
| 2026-04-26 13:37 | 59.66814 | -139.82344 | 36139 ft | 439 kts | 285° |
| 2026-04-26 13:38 | 59.68537 | -139.93943 | 36133 ft | 438 kts | 285° |
| 2026-04-26 13:38 | 59.70232 | -140.05436 | 36137 ft | 437 kts | 285° |
| 2026-04-26 13:39 | 59.71924 | -140.16989 | 36140 ft | 436 kts | 285° |
| 2026-04-26 13:39 | 59.73604 | -140.28545 | 36148 ft | 436 kts | 285° |
| 2026-04-26 13:40 | 59.75272 | -140.40090 | 36139 ft | 435 kts | 285° |
| 2026-04-26 13:40 | 59.76927 | -140.51633 | 36138 ft | 434 kts | 285° |
| 2026-04-26 13:41 | 59.78568 | -140.63161 | 36136 ft | 434 kts | 285° |
| 2026-04-26 13:41 | 59.80201 | -140.74711 | 36141 ft | 434 kts | 285° |
| 2026-04-26 13:42 | 59.81811 | -140.86186 | 36139 ft | 434 kts | 285° |
| 2026-04-26 13:42 | 59.83421 | -140.97741 | 36148 ft | 434 kts | 285° |
| 2026-04-26 13:43 | 59.85021 | -141.09309 | 36140 ft | 434 kts | 285° |
| 2026-04-26 13:43 | 59.86611 | -141.20885 | 36139 ft | 433 kts | 284° |
| 2026-04-26 13:44 | 59.88190 | -141.32464 | 36135 ft | 433 kts | 284° |
| 2026-04-26 13:44 | 59.89758 | -141.44056 | 36124 ft | 433 kts | 284° |
| 2026-04-26 13:45 | 59.91311 | -141.55621 | 36126 ft | 431 kts | 285° |
| 2026-04-26 13:45 | 59.92846 | -141.67132 | 36139 ft | 429 kts | 285° |
| 2026-04-26 13:46 | 59.94354 | -141.78527 | 36129 ft | 427 kts | 284° |
| 2026-04-26 13:46 | 59.95859 | -141.89991 | 36136 ft | 426 kts | 284° |
| 2026-04-26 13:47 | 59.97351 | -142.01434 | 36137 ft | 425 kts | 284° |
| 2026-04-26 13:47 | 59.98830 | -142.12866 | 36136 ft | 425 kts | 284° |
| 2026-04-26 13:48 | 60.00290 | -142.24241 | 36141 ft | 425 kts | 284° |
| 2026-04-26 13:48 | 60.01748 | -142.35682 | 36145 ft | 425 kts | 284° |
| 2026-04-26 13:49 | 60.03197 | -142.47143 | 36137 ft | 424 kts | 284° |
| 2026-04-26 13:49 | 60.04633 | -142.58589 | 36139 ft | 424 kts | 284° |
| 2026-04-26 13:50 | 60.06058 | -142.70036 | 36143 ft | 424 kts | 284° |
| 2026-04-26 13:50 | 60.07236 | -142.79564 | 36141 ft | 424 kts | 284° |
| 2026-04-26 13:51 | 60.08644 | -142.91036 | 36140 ft | 424 kts | 284° |
| 2026-04-26 13:51 | 60.10042 | -143.02516 | 36147 ft | 424 kts | 284° |
| 2026-04-26 13:52 | 60.11427 | -143.13991 | 36140 ft | 423 kts | 284° |
| 2026-04-26 13:52 | 60.12800 | -143.25444 | 36144 ft | 422 kts | 283° |
| 2026-04-26 13:53 | 60.14163 | -143.36915 | 36142 ft | 422 kts | 283° |
| 2026-04-26 13:53 | 60.15514 | -143.48378 | 36147 ft | 422 kts | 283° |
| 2026-04-26 13:54 | 60.16855 | -143.59848 | 36146 ft | 422 kts | 283° |
| 2026-04-26 13:54 | 60.18178 | -143.71255 | 36145 ft | 422 kts | 283° |
| 2026-04-26 13:55 | 60.19944 | -143.86626 | 36147 ft | 422 kts | 283° |
| 2026-04-26 13:56 | 60.22114 | -144.05755 | 36147 ft | 422 kts | 283° |
| 2026-04-26 13:56 | 60.23409 | -144.17303 | 36144 ft | 422 kts | 283° |
| 2026-04-26 13:57 | 60.24691 | -144.28837 | 36152 ft | 422 kts | 283° |
| 2026-04-26 13:57 | 60.25965 | -144.40390 | 36161 ft | 423 kts | 283° |
| 2026-04-26 13:58 | 60.27228 | -144.51951 | 36143 ft | 422 kts | 283° |
| 2026-04-26 13:58 | 60.28481 | -144.63516 | 36143 ft | 422 kts | 282° |
| 2026-04-26 13:59 | 60.29724 | -144.75086 | 36145 ft | 422 kts | 282° |
| 2026-04-26 13:59 | 60.30955 | -144.86654 | 36153 ft | 422 kts | 282° |
| 2026-04-26 14:00 | 60.33376 | -145.09713 | 36144 ft | 418 kts | 282° |
| 2026-04-26 14:01 | 60.34555 | -145.21091 | 36146 ft | 416 kts | 282° |
| 2026-04-26 14:01 | 60.35727 | -145.32508 | 36145 ft | 415 kts | 282° |
| 2026-04-26 14:02 | 60.36888 | -145.43923 | 36148 ft | 414 kts | 282° |
| 2026-04-26 14:02 | 60.38036 | -145.55310 | 36147 ft | 414 kts | 282° |
| 2026-04-26 14:03 | 60.39175 | -145.66713 | 36146 ft | 414 kts | 282° |
| 2026-04-26 14:03 | 60.40305 | -145.78123 | 36150 ft | 413 kts | 282° |
| 2026-04-26 14:04 | 60.41416 | -145.89461 | 36143 ft | 413 kts | 282° |
| 2026-04-26 14:04 | 60.42524 | -146.00866 | 36144 ft | 413 kts | 282° |
| 2026-04-26 14:05 | 60.43622 | -146.12277 | 36143 ft | 413 kts | 282° |
| 2026-04-26 14:05 | 60.44710 | -146.23694 | 36145 ft | 413 kts | 282° |
| 2026-04-26 14:06 | 60.45790 | -146.35136 | 36143 ft | 413 kts | 281° |
| 2026-04-26 14:06 | 60.46861 | -146.46579 | 36154 ft | 413 kts | 281° |
| 2026-04-26 14:07 | 60.47922 | -146.58004 | 36144 ft | 412 kts | 282° |
| 2026-04-26 14:07 | 60.49563 | -146.69116 | 36141 ft | 411 kts | 288° |
| 2026-04-26 14:08 | 60.51411 | -146.80103 | 36141 ft | 411 kts | 288° |
| 2026-04-26 14:08 | 60.53223 | -146.91029 | 36109 ft | 410 kts | 288° |
| 2026-04-26 14:09 | 60.55020 | -147.02008 | 36128 ft | 409 kts | 288° |
| 2026-04-26 14:09 | 60.56798 | -147.12966 | 36136 ft | 408 kts | 288° |
| 2026-04-26 14:10 | 60.58563 | -147.23918 | 36132 ft | 407 kts | 287° |
| 2026-04-26 14:10 | 60.59445 | -147.29418 | 35724 ft | 413 kts | 287° |
| 2026-04-26 14:10 | 60.60328 | -147.34937 | 35311 ft | 405 kts | 287° |
| 2026-04-26 14:10 | 60.61195 | -147.40373 | 34622 ft | 405 kts | 287° |
| 2026-04-26 14:11 | 60.62904 | -147.51141 | 33088 ft | 399 kts | 287° |
| 2026-04-26 14:11 | 60.63760 | -147.56559 | 32055 ft | 403 kts | 288° |
| 2026-04-26 14:11 | 60.64612 | -147.61970 | 31361 ft | 400 kts | 288° |
| 2026-04-26 14:12 | 60.65448 | -147.67293 | 31042 ft | 388 kts | 288° |
| 2026-04-26 14:12 | 60.66274 | -147.72572 | 30298 ft | 390 kts | 288° |
| 2026-04-26 14:12 | 60.67100 | -147.77862 | 29401 ft | 391 kts | 288° |
| 2026-04-26 14:12 | 60.67921 | -147.83137 | 28569 ft | 390 kts | 288° |
| 2026-04-26 14:13 | 60.69545 | -147.93625 | 26897 ft | 390 kts | 288° |
| 2026-04-26 14:13 | 60.70359 | -147.98905 | 26038 ft | 391 kts | 287° |
| 2026-04-26 14:13 | 60.71170 | -148.04177 | 25453 ft | 386 kts | 287° |
| 2026-04-26 14:14 | 60.71968 | -148.09386 | 24806 ft | 382 kts | 287° |
| 2026-04-26 14:14 | 60.72764 | -148.14581 | 24203 ft | 387 kts | 287° |
| 2026-04-26 14:14 | 60.73577 | -148.19918 | 23550 ft | 397 kts | 287° |
| 2026-04-26 14:14 | 60.74394 | -148.25305 | 22816 ft | 395 kts | 287° |
| 2026-04-26 14:15 | 60.75193 | -148.30620 | 22196 ft | 387 kts | 287° |
| 2026-04-26 14:15 | 60.75974 | -148.35853 | 21566 ft | 381 kts | 287° |
| 2026-04-26 14:15 | 60.76742 | -148.41007 | 20943 ft | 376 kts | 287° |
| 2026-04-26 14:15 | 60.77499 | -148.46112 | 20311 ft | 373 kts | 287° |
| 2026-04-26 14:16 | 60.78249 | -148.51177 | 19697 ft | 371 kts | 287° |
| 2026-04-26 14:16 | 60.78993 | -148.56223 | 19100 ft | 369 kts | 287° |
| 2026-04-26 14:16 | 60.79735 | -148.61257 | 18500 ft | 371 kts | 287° |
| 2026-04-26 14:16 | 60.80489 | -148.66389 | 17784 ft | 382 kts | 286° |
| 2026-04-26 14:17 | 60.81258 | -148.71640 | 17066 ft | 385 kts | 286° |
| 2026-04-26 14:17 | 60.82022 | -148.76878 | 16391 ft | 382 kts | 286° |
| 2026-04-26 14:17 | 60.82780 | -148.82084 | 15724 ft | 379 kts | 286° |
| 2026-04-26 14:17 | 60.83529 | -148.87249 | 15088 ft | 377 kts | 285° |
| 2026-04-26 14:18 | 60.84272 | -148.92391 | 14452 ft | 375 kts | 285° |
| 2026-04-26 14:18 | 60.85010 | -148.97507 | 13790 ft | 374 kts | 285° |
| 2026-04-26 14:18 | 60.85745 | -149.02624 | 13114 ft | 373 kts | 285° |
| 2026-04-26 14:18 | 60.86475 | -149.07719 | 12411 ft | 374 kts | 284° |
| 2026-04-26 14:19 | 60.87201 | -149.12803 | 12157 ft | 368 kts | 285° |
| 2026-04-26 14:19 | 60.87917 | -149.17825 | 12062 ft | 365 kts | 284° |
| 2026-04-26 14:19 | 60.88648 | -149.22721 | 11980 ft | 352 kts | 288° |
| 2026-04-26 14:19 | 60.89590 | -149.27265 | 11592 ft | 348 kts | 294° |
| 2026-04-26 14:20 | 60.90641 | -149.31758 | 11240 ft | 342 kts | 294° |
| 2026-04-26 14:20 | 60.91678 | -149.36133 | 10897 ft | 337 kts | 294° |
| 2026-04-26 14:20 | 60.92677 | -149.40390 | 10565 ft | 333 kts | 294° |
| 2026-04-26 14:20 | 60.93682 | -149.44733 | 10226 ft | 329 kts | 293° |
| 2026-04-26 14:21 | 60.94636 | -149.48902 | 9940 ft | 322 kts | 293° |
| 2026-04-26 14:21 | 60.95551 | -149.52927 | 9929 ft | 300 kts | 293° |
| 2026-04-26 14:21 | 60.96404 | -149.56691 | 9777 ft | 284 kts | 293° |
| 2026-04-26 14:21 | 60.97234 | -149.60374 | 9302 ft | 282 kts | 292° |
| 2026-04-26 14:22 | 60.98051 | -149.64007 | 8907 ft | 279 kts | 293° |
| 2026-04-26 14:22 | 60.98878 | -149.67693 | 8475 ft | 283 kts | 293° |
| 2026-04-26 14:22 | 60.99700 | -149.71359 | 8185 ft | 281 kts | 293° |
| 2026-04-26 14:22 | 61.00502 | -149.75027 | 7878 ft | 280 kts | 289° |
| 2026-04-26 14:23 | 61.01132 | -149.78805 | 7575 ft | 278 kts | 285° |
| 2026-04-26 14:23 | 61.01701 | -149.82618 | 7279 ft | 277 kts | 285° |
| 2026-04-26 14:23 | 61.02267 | -149.86412 | 6982 ft | 277 kts | 285° |
| 2026-04-26 14:23 | 61.02845 | -149.90193 | 6679 ft | 276 kts | 285° |
| 2026-04-26 14:24 | 61.03427 | -149.93953 | 6385 ft | 275 kts | 286° |
| 2026-04-26 14:24 | 61.04010 | -149.97702 | 6085 ft | 274 kts | 286° |
| 2026-04-26 14:24 | 61.04591 | -150.01437 | 5778 ft | 273 kts | 286° |
| 2026-04-26 14:24 | 61.05168 | -150.05153 | 5485 ft | 271 kts | 286° |
| 2026-04-26 14:25 | 61.05742 | -150.08854 | 5195 ft | 270 kts | 286° |
| 2026-04-26 14:25 | 61.06305 | -150.12492 | 4896 ft | 269 kts | 286° |
| 2026-04-26 14:25 | 61.06865 | -150.16111 | 4833 ft | 257 kts | 286° |
| 2026-04-26 14:25 | 61.07385 | -150.19480 | 4717 ft | 238 kts | 286° |
| 2026-04-26 14:26 | 61.07866 | -150.22580 | 4536 ft | 216 kts | 287° |
| 2026-04-26 14:26 | 61.08472 | -150.25277 | 4373 ft | 199 kts | 303° |
| 2026-04-26 14:26 | 61.09388 | -150.27233 | 4123 ft | 186 kts | 324° |
| 2026-04-26 14:26 | 61.10524 | -150.28437 | 3734 ft | 179 kts | 343° |
| 2026-04-26 14:27 | 61.11699 | -150.28948 | 3405 ft | 171 kts | 357° |
| 2026-04-26 14:27 | 61.12841 | -150.28890 | 3050 ft | 160 kts | 11° |
| 2026-04-26 14:27 | 61.13934 | -150.28265 | 2430 ft | 164 kts | 25° |
| 2026-04-26 14:27 | 61.14866 | -150.27183 | 2241 ft | 146 kts | 39° |
| 2026-04-26 14:28 | 61.15607 | -150.25778 | 2146 ft | 149 kts | 51° |
| 2026-04-26 14:28 | 61.16203 | -150.24013 | 1961 ft | 150 kts | 64° |
| 2026-04-26 14:28 | 61.16588 | -150.22027 | 1782 ft | 147 kts | 77° |
| 2026-04-26 14:28 | 61.16719 | -150.19943 | 1597 ft | 146 kts | 86° |
| 2026-04-26 14:29 | 61.16771 | -150.17834 | 1399 ft | 146 kts | 90° |
| 2026-04-26 14:29 | 61.16767 | -150.15716 | 1160 ft | 147 kts | 93° |
| 2026-04-26 14:29 | 61.16722 | -150.13625 | 964 ft | 146 kts | 92° |
| 2026-04-26 14:29 | 61.16720 | -150.11524 | 815 ft | 146 kts | 88° |
| 2026-04-26 14:30 | 61.16735 | -150.09400 | 644 ft | 147 kts | 85° |
| 2026-04-26 14:30 | 61.16785 | -150.07283 | 479 ft | 148 kts | 90° |
| 2026-04-26 14:30 | 61.16773 | -150.05154 | 293 ft | 149 kts | 88° |
| 2026-04-26 14:30 | 61.16781 | -150.03026 | 142 ft | 145 kts | 88° |
| 2026-04-26 14:31 | 61.16786 | -150.01067 | 134 ft | 118 kts | 88° |
| 2026-04-26 14:31 | 61.16791 | -149.99675 | 125 ft | 73 kts | 91° |
| 2026-04-26 14:31 | 61.16788 | -149.98873 | 122 ft | 52 kts | 89° |
| 2026-04-26 14:31 | 61.16814 | -149.98526 | 116 ft | 16 kts | 46° |
| 2026-04-26 14:32 | 61.16945 | -149.98567 | 112 ft | 21 kts | 341° |
| 2026-04-26 14:32 | 61.17075 | -149.98663 | 113 ft | 16 kts | 349° |
| 2026-04-26 14:32 | 61.17119 | -149.98517 | 114 ft | 17 kts | 81° |
| 2026-04-26 14:32 | 61.17169 | -149.98396 | 111 ft | 5 kts | 355° |
| 2026-04-26 14:33 | 61.17199 | -149.98395 | 116 ft | 3 kts | 360° |
| 2026-04-26 14:33 | 61.17214 | -149.98396 | 110 ft | 3 kts | 358° |
| 2026-04-26 14:33 | 61.17219 | -149.98396 | 110 ft | 0 kts | 358° |